Terminal Aerodrome Forecast
Issued by NWS

Home | Current Version | Previous Version | Text Only | Print | Product List | Glossary On
Versions: 1 2 3 4 5 6 7 8 9 10 11 12 13 14 15 16 17 18
000
FTUS46 KMTR 061731
TAFSJC
TAF
KSJC 061731Z 0618/0718 VRB06KT P6SM -SHRA SCT030 BKN060 OVC100
     FM062300 26009KT P6SM VCSH SCT030 SCT060 BKN100
     FM070300 31006KT P6SM SCT030 SCT050
     FM070700 14011KT P6SM BKN020 BKN030
     FM071500 14014G21KT P6SM SCT025 BKN035 OVC060=

USA.gov is the U.S. government's official web portal to all federal, state and local government web resources and services.